createdAt,value
2018-06-23T00:00:57.823Z,10.77
2018-06-23T00:03:26.626Z,7.67
2018-06-23T00:05:55.437Z,6.60
2018-06-23T00:08:24.239Z,8.47
2018-06-23T00:10:53.056Z,7.37
2018-06-23T00:13:21.851Z,7.47
2018-06-23T00:15:50.663Z,7.20
2018-06-23T00:18:19.477Z,9.50
2018-06-23T00:20:48.379Z,8.40
2018-06-23T00:23:18.124Z,9.70
2018-06-23T00:25:52.326Z,10.13
2018-06-23T00:28:21.013Z,9.87
2018-06-23T00:30:49.820Z,7.37
2018-06-23T00:33:18.508Z,6.23
2018-06-23T00:35:47.804Z,8.07
2018-06-23T00:38:16.822Z,9.43
2018-06-23T00:40:45.625Z,6.37
2018-06-23T00:43:14.432Z,6.57
2018-06-23T00:45:43.235Z,6.43
2018-06-23T00:48:13.095Z,5.57
2018-06-23T00:50:41.918Z,9.47
2018-06-23T00:53:10.707Z,7.93
2018-06-23T00:55:40.067Z,6.23
2018-06-23T00:58:08.892Z,6.63
2018-06-23T01:00:37.686Z,7.40
2018-06-23T01:03:06.506Z,7.23
2018-06-23T01:05:35.311Z,8.03
2018-06-23T01:08:04.109Z,6.33
2018-06-23T01:10:32.918Z,5.47
2018-06-23T01:13:01.710Z,8.73
2018-06-23T01:15:30.518Z,11.07
2018-06-23T01:18:00.146Z,13.65
2018-06-23T01:20:28.967Z,10.30
2018-06-23T01:22:57.795Z,11.37
2018-06-23T01:25:26.672Z,9.60
2018-06-23T01:27:55.709Z,5.90
2018-06-23T01:30:24.508Z,8.03
2018-06-23T01:32:53.363Z,8.97
2018-06-23T01:35:22.205Z,9.37
2018-06-23T01:37:51.023Z,13.50
2018-06-23T01:40:19.848Z,10.43
2018-06-23T01:42:48.488Z,11.55
2018-06-23T01:45:17.192Z,14.13
2018-06-23T01:47:46.045Z,13.58
2018-06-23T01:50:14.930Z,11.53
2018-06-23T01:52:43.717Z,11.25
2018-06-23T01:55:12.548Z,11.43
2018-06-23T01:57:41.379Z,16.90
2018-06-23T02:00:10.226Z,11.80
2018-06-23T02:02:39.051Z,8.83
2018-06-23T02:05:08.163Z,12.77
2018-06-23T02:07:36.982Z,9.43
2018-06-23T02:10:05.823Z,10.60
2018-06-23T02:12:34.649Z,11.13
2018-06-23T02:15:10.091Z,15.13
2018-06-23T02:17:44.615Z,11.35
2018-06-23T02:21:17.820Z,10.60
2018-06-23T02:23:52.027Z,18.90
2018-06-23T02:27:27.179Z,13.32
2018-06-23T02:30:01.460Z,14.78
2018-06-23T02:32:35.757Z,13.93
2018-06-23T02:35:05.104Z,13.05
2018-06-23T02:37:35.852Z,12.95
2018-06-23T02:40:05.344Z,12.37
2018-06-23T02:42:34.751Z,13.33
2018-06-23T02:45:03.839Z,11.53
2018-06-23T02:47:32.690Z,15.10
2018-06-23T02:50:01.518Z,10.20
2018-06-23T02:52:31.431Z,14.18
2018-06-23T02:55:00.533Z,14.50
2018-06-23T02:57:29.528Z,14.90
2018-06-23T02:59:58.507Z,14.05
2018-06-23T03:02:27.334Z,17.12
2018-06-23T03:04:56.488Z,11.73
2018-06-23T03:07:25.333Z,12.88
2018-06-23T03:09:54.452Z,13.97
2018-06-23T03:12:23.304Z,11.83
2018-06-23T03:14:52.763Z,17.70
2018-06-23T03:17:22.411Z,10.23
2018-06-23T03:19:51.904Z,11.63
2018-06-23T03:22:20.728Z,12.27
2018-06-23T03:24:49.550Z,14.00
2018-06-23T03:27:18.391Z,11.67
2018-06-23T03:29:47.203Z,16.20
2018-06-23T03:32:16.054Z,17.07
2018-06-23T03:34:44.862Z,9.50
2018-06-23T03:37:13.673Z,13.77
2018-06-23T03:39:42.483Z,11.93
2018-06-23T03:42:12.139Z,9.47
2018-06-23T03:44:41.000Z,13.50
2018-06-23T03:47:09.831Z,15.33
2018-06-23T03:49:38.641Z,14.53
2018-06-23T03:52:07.465Z,14.07
2018-06-23T03:54:36.277Z,16.10
2018-06-23T03:57:05.271Z,11.30
2018-06-23T03:59:34.090Z,13.03
2018-06-23T04:02:02.917Z,12.57
2018-06-23T04:04:32.051Z,11.87
2018-06-23T04:07:00.780Z,13.80
2018-06-23T04:09:29.480Z,13.83
2018-06-23T04:11:58.316Z,12.17
2018-06-23T04:14:27.136Z,16.03
2018-06-23T04:16:55.972Z,8.43
2018-06-23T04:19:24.807Z,10.27
2018-06-23T04:21:53.619Z,9.77
2018-06-23T04:24:22.436Z,12.33
2018-06-23T04:26:51.255Z,14.13
2018-06-23T04:29:20.119Z,12.17
2018-06-23T04:31:48.909Z,8.23
2018-06-23T04:34:17.749Z,9.87
2018-06-23T04:36:46.568Z,10.63
2018-06-23T04:39:15.392Z,8.23
2018-06-23T04:41:44.227Z,8.60
2018-06-23T04:44:13.051Z,10.93
2018-06-23T04:46:41.692Z,8.53
2018-06-23T04:49:10.370Z,8.13
2018-06-23T04:51:39.195Z,6.93
2018-06-23T04:54:08.303Z,9.80
2018-06-23T04:56:37.118Z,8.43
2018-06-23T04:59:06.786Z,7.70
2018-06-23T05:01:35.631Z,10.07
2018-06-23T05:04:04.553Z,7.63
2018-06-23T05:06:33.367Z,7.63
2018-06-23T05:09:02.182Z,8.67
2018-06-23T05:11:30.995Z,9.27
2018-06-23T05:13:59.811Z,9.50
2018-06-23T05:16:28.623Z,10.27
2018-06-23T05:18:57.439Z,6.97
2018-06-23T05:21:26.457Z,8.53
2018-06-23T05:23:55.779Z,6.83
2018-06-23T05:26:24.622Z,6.60
2018-06-23T05:28:53.446Z,7.20
2018-06-23T05:31:22.270Z,9.67
2018-06-23T05:33:51.091Z,9.93
2018-06-23T05:36:19.939Z,8.23
2018-06-23T05:38:48.751Z,9.33
2018-06-23T05:41:17.573Z,7.53
2018-06-23T05:43:46.407Z,6.43
2018-06-23T05:46:15.263Z,5.23
2018-06-23T05:48:44.093Z,6.63
2018-06-23T05:51:12.907Z,3.20
2018-06-23T05:53:41.731Z,5.70
2018-06-23T05:56:10.545Z,6.43
2018-06-23T05:58:39.355Z,4.40
2018-06-23T06:01:08.579Z,2.87
2018-06-23T06:03:37.396Z,6.63
2018-06-23T06:06:06.221Z,2.37
2018-06-23T06:08:35.083Z,2.53
2018-06-23T06:11:03.912Z,4.17
2018-06-23T06:13:32.761Z,3.10
2018-06-23T06:16:01.568Z,2.83
2018-06-23T06:18:30.199Z,3.40
2018-06-23T06:20:58.888Z,4.33
2018-06-23T06:23:27.944Z,2.93
2018-06-23T06:25:56.622Z,2.87
2018-06-23T06:28:25.994Z,2.33
2018-06-23T06:30:54.808Z,2.73
2018-06-23T06:33:23.630Z,1.90
2018-06-23T06:35:52.435Z,2.07
2018-06-23T06:38:21.255Z,1.53
2018-06-23T06:40:50.120Z,4.70
2018-06-23T06:43:19.749Z,2.77
2018-06-23T06:45:49.105Z,1.77
2018-06-23T06:48:17.934Z,5.60
2018-06-23T06:50:46.793Z,3.93
2018-06-23T06:53:15.591Z,2.37
2018-06-23T06:55:44.406Z,3.30
2018-06-23T06:58:13.210Z,2.60
2018-06-23T07:00:42.047Z,3.53
2018-06-23T07:03:10.861Z,3.73
2018-06-23T07:05:39.667Z,3.87
2018-06-23T07:08:08.495Z,3.33
2018-06-23T07:10:37.322Z,4.27
2018-06-23T07:13:07.169Z,2.07
2018-06-23T07:15:36.781Z,3.23
2018-06-23T07:18:05.650Z,2.87
2018-06-23T07:20:34.447Z,4.13
2018-06-23T07:23:03.312Z,3.37
2018-06-23T07:25:32.130Z,4.70
2018-06-23T07:28:00.955Z,3.27
2018-06-23T07:30:29.827Z,2.63
2018-06-23T07:32:58.640Z,3.62
2018-06-23T07:35:27.552Z,2.77
2018-06-23T07:37:56.454Z,3.50
2018-06-23T07:40:25.267Z,1.40
2018-06-23T07:42:54.383Z,3.23
2018-06-23T07:45:23.911Z,2.50
2018-06-23T07:47:52.747Z,1.47
2018-06-23T07:50:21.559Z,1.33
2018-06-23T07:52:50.392Z,2.17
2018-06-23T07:55:19.208Z,1.33
2018-06-23T07:57:48.455Z,1.87
2018-06-23T08:00:17.376Z,2.60
2018-06-23T08:02:46.268Z,1.73
2018-06-23T08:05:15.535Z,1.47
2018-06-23T08:07:44.354Z,1.13
2018-06-23T08:10:13.188Z,0.73
2018-06-23T08:12:41.898Z,2.63
2018-06-23T08:15:10.614Z,1.53
2018-06-23T08:17:39.441Z,1.20
2018-06-23T08:20:08.290Z,2.60
2018-06-23T08:22:37.214Z,1.90
2018-06-23T08:25:06.557Z,1.30
2018-06-23T08:27:35.795Z,2.10
2018-06-23T08:30:04.699Z,1.30
2018-06-23T08:32:33.567Z,0.97
2018-06-23T08:35:02.484Z,2.20
2018-06-23T08:37:31.303Z,2.13
2018-06-23T08:40:00.156Z,1.67
2018-06-23T08:42:29.203Z,1.17
2018-06-23T08:44:58.031Z,0.73
2018-06-23T08:47:26.886Z,1.20
2018-06-23T08:49:55.777Z,1.73
2018-06-23T08:52:24.669Z,1.97
2018-06-23T08:54:53.559Z,1.50
2018-06-23T08:57:22.468Z,0.47
2018-06-23T08:59:51.279Z,0.30
2018-06-23T09:02:20.117Z,0.23
2018-06-23T09:04:48.955Z,0.37
2018-06-23T09:07:18.678Z,0.93
2018-06-23T09:09:47.603Z,0.20
2018-06-23T09:12:16.590Z,0.20
2018-06-23T09:14:45.416Z,0.43
2018-06-23T09:17:14.281Z,0.43
2018-06-23T09:19:43.152Z,0.53
2018-06-23T09:22:12.212Z,0.40
2018-06-23T09:24:41.067Z,0.50
2018-06-23T09:27:10.270Z,0.70
2018-06-23T09:29:39.213Z,0.40
2018-06-23T09:32:08.041Z,0.50
2018-06-23T09:34:36.860Z,0.37
2018-06-23T09:37:05.679Z,0.40
2018-06-23T09:39:34.501Z,0.40
2018-06-23T09:42:03.401Z,0.50
2018-06-23T09:44:32.216Z,0.57
2018-06-23T09:47:01.047Z,0.50
2018-06-23T09:49:29.974Z,0.43
2018-06-23T09:51:58.779Z,0.50
2018-06-23T09:54:27.596Z,0.40
2018-06-23T09:56:56.424Z,0.50
2018-06-23T09:59:25.235Z,0.97
2018-06-23T10:01:54.059Z,1.03
2018-06-23T10:04:22.891Z,1.10
2018-06-23T10:06:51.736Z,3.17
2018-06-23T10:09:20.560Z,5.10
2018-06-23T10:11:49.459Z,3.53
2018-06-23T10:14:18.279Z,7.70
2018-06-23T10:16:47.101Z,6.43
2018-06-23T10:19:15.928Z,8.57
2018-06-23T10:21:44.732Z,7.60
2018-06-23T10:24:14.194Z,7.83
2018-06-23T10:26:43.037Z,9.13
2018-06-23T10:29:11.840Z,7.07
2018-06-23T10:31:41.151Z,5.13
2018-06-23T10:34:10.079Z,6.43
2018-06-23T10:36:38.887Z,5.93
2018-06-23T10:39:09.272Z,10.33
2018-06-23T10:41:38.585Z,7.40
2018-06-23T10:44:07.772Z,7.67
2018-06-23T10:46:36.775Z,9.37
2018-06-23T10:49:06.889Z,7.53
2018-06-23T10:51:36.205Z,7.80
2018-06-23T10:54:05.304Z,7.03
2018-06-23T10:56:34.120Z,7.87
2018-06-23T10:59:03.154Z,7.57
2018-06-23T11:01:32.098Z,7.70
2018-06-23T11:04:00.910Z,7.10
2018-06-23T11:06:30.603Z,7.50
2018-06-23T11:08:59.318Z,6.57
2018-06-23T11:11:28.019Z,7.63
2018-06-23T11:13:56.830Z,7.93
2018-06-23T11:16:25.646Z,7.53
2018-06-23T11:18:54.366Z,7.23
2018-06-23T11:21:23.085Z,6.63
2018-06-23T11:23:51.993Z,7.37
2018-06-23T11:26:20.783Z,10.73
2018-06-23T11:28:49.733Z,7.47
2018-06-23T11:31:18.584Z,9.40
2018-06-23T11:33:47.395Z,6.97
2018-06-23T11:36:16.326Z,9.13
2018-06-23T11:38:45.160Z,14.03
2018-06-23T11:41:14.002Z,10.03
2018-06-23T11:43:42.894Z,6.83
2018-06-23T11:46:11.715Z,6.20
2018-06-23T11:48:41.453Z,10.07
2018-06-23T11:51:10.352Z,9.03
2018-06-23T11:53:39.160Z,4.77
2018-06-23T11:56:07.987Z,10.27
2018-06-23T11:58:36.807Z,11.83
2018-06-23T12:01:06.090Z,7.00
2018-06-23T12:03:35.240Z,12.17
2018-06-23T12:06:04.065Z,10.23
2018-06-23T12:08:32.871Z,7.83
2018-06-23T12:11:01.701Z,9.93
2018-06-23T12:13:30.519Z,13.80
2018-06-23T12:15:59.331Z,11.53
2018-06-23T12:18:28.147Z,8.20
2018-06-23T12:20:57.334Z,7.87
2018-06-23T12:23:26.373Z,11.03
2018-06-23T12:25:55.706Z,7.60
2018-06-23T12:28:24.566Z,9.33
2018-06-23T12:30:53.328Z,7.67
2018-06-23T12:33:22.209Z,7.67
2018-06-23T12:35:51.016Z,11.10
2018-06-23T12:38:19.960Z,8.93
2018-06-23T12:40:49.217Z,8.73
2018-06-23T12:43:19.002Z,10.10
2018-06-23T12:45:47.827Z,8.60
2018-06-23T12:48:16.667Z,8.33
2018-06-23T12:50:45.487Z,8.53
2018-06-23T12:53:14.359Z,8.83
2018-06-23T12:55:43.183Z,13.17
2018-06-23T12:58:11.996Z,8.17
2018-06-23T13:00:40.826Z,6.93
2018-06-23T13:03:10.417Z,8.87
2018-06-23T13:05:39.311Z,5.70
2018-06-23T13:08:08.209Z,10.17
2018-06-23T13:10:38.064Z,9.80
2018-06-23T13:13:06.908Z,12.23
2018-06-23T13:15:36.120Z,11.87
2018-06-23T13:18:05.478Z,10.50
2018-06-23T13:20:34.319Z,10.73
2018-06-23T13:23:03.155Z,11.63
2018-06-23T13:25:32.405Z,9.60
2018-06-23T13:28:01.231Z,13.27
2018-06-23T13:30:30.748Z,10.57
2018-06-23T13:32:59.444Z,6.33
2018-06-23T13:35:29.200Z,11.33
2018-06-23T13:37:58.857Z,12.80
2018-06-23T13:40:27.675Z,12.00
2018-06-23T13:42:56.743Z,9.27
2018-06-23T13:45:25.588Z,11.43
2018-06-23T13:47:54.452Z,14.40
2018-06-23T13:50:23.274Z,9.10
2018-06-23T13:52:52.114Z,8.83
2018-06-23T13:55:21.002Z,9.53
2018-06-23T13:57:49.928Z,7.50
2018-06-23T14:00:18.728Z,10.20
2018-06-23T14:02:47.547Z,8.53
2018-06-23T14:05:16.361Z,9.00
2018-06-23T14:07:45.175Z,10.43
2018-06-23T14:10:13.978Z,7.70
2018-06-23T14:12:42.811Z,8.73
2018-06-23T14:15:11.624Z,12.13
2018-06-23T14:17:40.452Z,13.00
2018-06-23T14:20:09.264Z,8.93
2018-06-23T14:22:38.083Z,8.47
2018-06-23T14:25:06.975Z,10.33
2018-06-23T14:27:35.801Z,7.83
2018-06-23T14:30:05.325Z,10.60
2018-06-23T14:32:34.390Z,8.63
2018-06-23T14:35:03.265Z,9.40
2018-06-23T14:37:32.146Z,9.40
2018-06-23T14:40:00.959Z,9.07
2018-06-23T14:42:29.821Z,9.83
2018-06-23T14:44:58.652Z,11.13
2018-06-23T14:47:27.509Z,10.73
2018-06-23T14:49:56.308Z,11.23
2018-06-23T14:52:25.167Z,11.70
2018-06-23T14:54:54.053Z,8.33
2018-06-23T14:57:22.891Z,12.93
2018-06-23T14:59:51.764Z,10.10
2018-06-23T15:02:20.623Z,9.70
2018-06-23T15:04:49.473Z,8.33
2018-06-23T15:07:18.599Z,9.50
2018-06-23T15:09:58.820Z,9.00
2018-06-23T15:12:33.114Z,14.20
2018-06-23T15:15:02.170Z,11.57
2018-06-23T15:17:31.094Z,8.43
2018-06-23T15:20:00.057Z,13.13
2018-06-23T15:22:28.876Z,10.60
2018-06-23T15:24:57.713Z,10.50
2018-06-23T15:27:26.603Z,9.80
2018-06-23T15:29:55.434Z,15.00
2018-06-23T15:32:24.525Z,12.13
2018-06-23T15:34:53.335Z,11.83
2018-06-23T15:37:22.163Z,11.10
2018-06-23T15:39:50.976Z,10.03
2018-06-23T15:42:19.994Z,9.57
2018-06-23T15:44:48.787Z,9.50
2018-06-23T15:47:17.691Z,10.60
2018-06-23T15:49:46.500Z,12.23
2018-06-23T15:52:15.315Z,8.90
2018-06-23T15:54:44.667Z,9.03
2018-06-23T15:57:13.559Z,6.63
2018-06-23T15:59:42.395Z,9.87
2018-06-23T16:02:11.231Z,9.53
2018-06-23T16:04:40.048Z,7.73
2018-06-23T16:07:08.876Z,11.60
2018-06-23T16:09:37.709Z,10.07
2018-06-23T16:12:06.345Z,12.13
2018-06-23T16:14:35.058Z,9.53
2018-06-23T16:17:04.016Z,8.13
2018-06-23T16:19:32.848Z,11.37
2018-06-23T16:22:01.598Z,11.77
2018-06-23T16:24:30.278Z,9.07
2018-06-23T16:26:59.115Z,15.03
2018-06-23T16:29:27.923Z,7.90
2018-06-23T16:31:56.739Z,13.20
2018-06-23T16:34:25.655Z,9.13
2018-06-23T16:36:54.464Z,9.00
2018-06-23T16:39:23.824Z,12.70
2018-06-23T16:41:52.765Z,11.00
2018-06-23T16:44:22.440Z,12.13
2018-06-23T16:46:51.924Z,11.47
2018-06-23T16:49:20.750Z,15.07
2018-06-23T16:51:49.567Z,8.87
2018-06-23T16:54:18.397Z,9.30
2018-06-23T16:56:47.219Z,12.20
2018-06-23T16:59:16.039Z,10.07
2018-06-23T17:01:45.186Z,11.47
2018-06-23T17:04:14.005Z,12.17
2018-06-23T17:06:42.783Z,11.50
2018-06-23T17:09:12.021Z,7.30
2018-06-23T17:11:41.337Z,10.43
2018-06-23T17:14:10.149Z,7.40
2018-06-23T17:16:38.959Z,9.87
2018-06-23T17:19:08.487Z,12.97
2018-06-23T17:21:37.300Z,6.80
2018-06-23T17:24:06.131Z,12.20
2018-06-23T17:26:34.958Z,12.00
2018-06-23T17:29:03.780Z,15.67
2018-06-23T17:31:32.575Z,10.77
2018-06-23T17:34:01.451Z,8.70
2018-06-23T17:36:30.263Z,11.53
2018-06-23T17:38:59.107Z,10.80
2018-06-23T17:41:27.951Z,8.63
2018-06-23T17:43:58.119Z,9.97
2018-06-23T17:46:26.935Z,10.43
2018-06-23T17:48:56.016Z,8.23
2018-06-23T17:51:25.603Z,10.43
2018-06-23T17:53:54.423Z,12.30
2018-06-23T17:56:23.286Z,12.53
2018-06-23T17:58:52.368Z,13.40
2018-06-23T18:01:21.196Z,13.47
2018-06-23T18:03:50.016Z,10.97
2018-06-23T18:06:18.872Z,12.97
2018-06-23T18:08:47.689Z,11.43
2018-06-23T18:11:16.524Z,7.27
2018-06-23T18:13:45.335Z,8.80
2018-06-23T18:16:14.235Z,9.90
2018-06-23T18:18:43.111Z,8.97
2018-06-23T18:21:12.057Z,8.33
2018-06-23T18:23:41.008Z,11.97
2018-06-23T18:26:09.794Z,10.73
2018-06-23T18:28:38.635Z,11.67
2018-06-23T18:31:07.467Z,14.30
2018-06-23T18:33:36.363Z,15.57
2018-06-23T18:36:05.184Z,14.67
2018-06-23T18:38:34.022Z,15.40
2018-06-23T18:41:02.848Z,13.87
2018-06-23T18:43:31.663Z,11.13
2018-06-23T18:46:00.606Z,10.27
2018-06-23T18:48:29.454Z,12.77
2018-06-23T18:50:58.368Z,13.57
2018-06-23T18:53:27.422Z,9.07
2018-06-23T18:55:56.280Z,13.13
2018-06-23T18:58:25.128Z,10.17
2018-06-23T19:00:54.058Z,14.30
2018-06-23T19:03:23.678Z,12.97
2018-06-23T19:05:52.487Z,11.13
2018-06-23T19:08:21.319Z,10.43
2018-06-23T19:10:50.168Z,12.27
2018-06-23T19:13:19.017Z,10.07
2018-06-23T19:15:48.219Z,10.53
2018-06-23T19:18:17.096Z,18.00
2018-06-23T19:20:46.395Z,12.33
2018-06-23T19:23:15.220Z,11.90
2018-06-23T19:25:44.055Z,11.60
2018-06-23T19:28:12.875Z,14.40
2018-06-23T19:30:41.770Z,10.97
2018-06-23T19:33:10.495Z,9.97
2018-06-23T19:35:39.222Z,10.77
2018-06-23T19:38:08.033Z,15.53
2018-06-23T19:40:36.864Z,11.00
2018-06-23T19:43:05.693Z,12.30
2018-06-23T19:45:34.558Z,12.67
2018-06-23T19:48:03.385Z,11.43
2018-06-23T19:50:32.432Z,11.70
2018-06-23T19:53:01.253Z,13.20
2018-06-23T19:55:29.899Z,10.67
2018-06-23T19:57:59.182Z,11.03
2018-06-23T20:00:28.411Z,13.47
2018-06-23T20:02:57.225Z,9.43
2018-06-23T20:05:26.040Z,8.57
2018-06-23T20:07:54.871Z,9.67
2018-06-23T20:10:23.947Z,11.23
2018-06-23T20:12:52.853Z,9.73
2018-06-23T20:15:22.097Z,10.73
2018-06-23T20:17:50.761Z,11.53
2018-06-23T20:20:19.469Z,16.17
2018-06-23T20:22:48.291Z,8.77
2018-06-23T20:25:17.232Z,12.87
2018-06-23T20:27:47.608Z,11.27
2018-06-23T20:30:16.485Z,7.37
2018-06-23T20:32:45.907Z,11.97
2018-06-23T20:35:14.853Z,8.27
2018-06-23T20:37:43.692Z,8.20
2018-06-23T20:40:12.845Z,8.67
2018-06-23T20:42:41.663Z,8.63
2018-06-23T20:45:10.633Z,9.13
2018-06-23T20:47:39.630Z,6.87
2018-06-23T20:50:08.459Z,8.67
2018-06-23T20:52:37.276Z,13.50
2018-06-23T20:55:06.253Z,9.50
2018-06-23T20:57:35.145Z,9.90
2018-06-23T21:00:03.971Z,10.50
2018-06-23T21:02:33.309Z,10.27
2018-06-23T21:05:02.051Z,10.53
2018-06-23T21:07:31.502Z,11.23
2018-06-23T21:10:00.353Z,11.90
2018-06-23T21:12:29.347Z,11.47
2018-06-23T21:14:58.581Z,8.37
2018-06-23T21:17:27.412Z,6.27
2018-06-23T21:19:56.372Z,6.30
2018-06-23T21:22:25.200Z,6.13
2018-06-23T21:24:54.022Z,7.30
2018-06-23T21:27:22.831Z,9.40
2018-06-23T21:29:51.722Z,7.83
2018-06-23T21:32:20.797Z,8.17
2018-06-23T21:34:49.628Z,7.90
2018-06-23T21:37:18.416Z,11.47
2018-06-23T21:39:47.248Z,8.70
2018-06-23T21:42:16.068Z,10.10
2018-06-23T21:44:44.921Z,7.57
2018-06-23T21:47:13.739Z,7.97
2018-06-23T21:49:42.599Z,8.70
2018-06-23T21:52:11.423Z,10.03
2018-06-23T21:54:40.263Z,8.43
2018-06-23T21:57:09.097Z,8.10
2018-06-23T21:59:37.978Z,10.03
2018-06-23T22:02:06.795Z,12.33
2018-06-23T22:04:35.885Z,8.87
2018-06-23T22:07:04.851Z,10.97
2018-06-23T22:09:33.658Z,10.77
2018-06-23T22:12:02.572Z,14.77
2018-06-23T22:14:31.324Z,11.77
2018-06-23T22:17:00.158Z,10.20
2018-06-23T22:19:28.988Z,10.70
2018-06-23T22:21:57.833Z,9.73
2018-06-23T22:24:26.655Z,10.77
2018-06-23T22:26:55.513Z,8.67
2018-06-23T22:29:24.315Z,7.47
2018-06-23T22:31:53.119Z,10.43
2018-06-23T22:34:21.930Z,9.90
2018-06-23T22:36:50.767Z,9.50
2018-06-23T22:39:19.619Z,12.77
2018-06-23T22:41:48.429Z,9.53
2018-06-23T22:44:17.535Z,8.00
2018-06-23T22:46:46.355Z,9.00
2018-06-23T22:49:15.522Z,10.97
2018-06-23T22:51:44.372Z,8.83
2018-06-23T22:54:13.200Z,10.37
2018-06-23T22:56:42.052Z,9.00
2018-06-23T22:59:10.881Z,7.37
2018-06-23T23:01:39.591Z,10.83
2018-06-23T23:04:08.291Z,13.37
2018-06-23T23:06:37.388Z,7.07
2018-06-23T23:09:07.436Z,8.07
2018-06-23T23:11:36.285Z,10.23
2018-06-23T23:14:05.883Z,7.90
2018-06-23T23:16:34.957Z,10.50
2018-06-23T23:19:03.764Z,11.07
2018-06-23T23:21:32.599Z,8.37
2018-06-23T23:24:01.412Z,9.97
2018-06-23T23:26:30.237Z,8.10
2018-06-23T23:28:59.047Z,7.83
2018-06-23T23:31:27.989Z,8.93
2018-06-23T23:33:56.795Z,8.60
2018-06-23T23:36:25.639Z,7.60
2018-06-23T23:38:54.495Z,9.27
2018-06-23T23:41:23.369Z,13.00
2018-06-23T23:43:52.201Z,8.67
2018-06-23T23:46:21.019Z,6.37
2018-06-23T23:48:49.840Z,6.53
2018-06-23T23:51:18.659Z,8.33
2018-06-23T23:53:47.470Z,7.37
2018-06-23T23:56:16.305Z,6.10
2018-06-23T23:58:45.135Z,6.00
